sensor_id;sensor_type;location;lat;lon;timestamp;temperature;humidity
21744;DHT22;11034;48.556;9.342;2023-03-04T05:47:33;-2.50;99.90
21744;DHT22;11034;48.556;9.342;2023-03-04T05:50:01;-2.70;99.90
21744;DHT22;11034;48.556;9.342;2023-03-04T05:52:29;-2.70;99.90
21744;DHT22;11034;48.556;9.342;2023-03-04T05:54:57;-2.80;99.90
21744;DHT22;11034;48.556;9.342;2023-03-04T05:57:25;-2.70;99.90
21744;DHT22;11034;48.556;9.342;2023-03-04T05:59:53;-2.50;99.90
21744;DHT22;11034;48.556;9.342;2023-03-04T06:02:21;-2.50;99.90
21744;DHT22;11034;48.556;9.342;2023-03-04T06:04:50;-2.40;99.90
21744;DHT22;11034;48.556;9.342;2023-03-04T06:07:18;-2.50;99.90
21744;DHT22;11034;48.556;9.342;2023-03-04T06:09:46;-2.50;99.90
21744;DHT22;11034;48.556;9.342;2023-03-04T06:12:14;-2.40;99.90
21744;DHT22;11034;48.556;9.342;2023-03-04T06:14:42;-2.30;99.90
21744;DHT22;11034;48.556;9.342;2023-03-04T06:17:10;-2.30;99.90
21744;DHT22;11034;48.556;9.342;2023-03-04T06:19:38;-2.20;99.90
21744;DHT22;11034;48.556;9.342;2023-03-04T06:22:09;-2.10;99.90
21744;DHT22;11034;48.556;9.342;2023-03-04T06:24:37;-2.00;99.90
21744;DHT22;11034;48.556;9.342;2023-03-04T06:27:05;-2.00;99.90
21744;DHT22;11034;48.556;9.342;2023-03-04T06:29:33;-2.00;99.90
21744;DHT22;11034;48.556;9.342;2023-03-04T06:32:01;-1.90;99.90
21744;DHT22;11034;48.556;9.342;2023-03-04T06:34:34;-1.90;99.90
21744;DHT22;11034;48.556;9.342;2023-03-04T06:37:03;-1.80;99.90
21744;DHT22;11034;48.556;9.342;2023-03-04T06:39:32;-1.80;99.90
21744;DHT22;11034;48.556;9.342;2023-03-04T06:42:00;-1.70;99.90
21744;DHT22;11034;48.556;9.342;2023-03-04T06:44:28;-1.60;99.90
21744;DHT22;11034;48.556;9.342;2023-03-04T06:46:56;-1.50;99.90
21744;DHT22;11034;48.556;9.342;2023-03-04T06:49:24;-1.50;99.90
21744;DHT22;11034;48.556;9.342;2023-03-04T06:51:52;-1.40;99.90
21744;DHT22;11034;48.556;9.342;2023-03-04T06:54:21;-1.30;99.90
21744;DHT22;11034;48.556;9.342;2023-03-04T06:56:50;-1.20;99.90
21744;DHT22;11034;48.556;9.342;2023-03-04T06:59:18;-1.20;99.90
21744;DHT22;11034;48.556;9.342;2023-03-04T07:01:46;-1.10;99.90
21744;DHT22;11034;48.556;9.342;2023-03-04T07:04:14;-1.00;99.90
21744;DHT22;11034;48.556;9.342;2023-03-04T07:06:42;-1.00;99.90
21744;DHT22;11034;48.556;9.342;2023-03-04T07:09:10;-0.80;99.90
21744;DHT22;11034;48.556;9.342;2023-03-04T07:11:38;-0.80;99.90
21744;DHT22;11034;48.556;9.342;2023-03-04T07:14:07;-0.70;99.90
21744;DHT22;11034;48.556;9.342;2023-03-04T07:16:35;-0.60;99.90
21744;DHT22;11034;48.556;9.342;2023-03-04T07:19:03;-0.50;99.90
21744;DHT22;11034;48.556;9.342;2023-03-04T07:21:32;-0.40;99.90
21744;DHT22;11034;48.556;9.342;2023-03-04T07:24:00;-0.30;99.90
21744;DHT22;11034;48.556;9.342;2023-03-04T07:26:28;-0.10;99.90
21744;DHT22;11034;48.556;9.342;2023-03-04T07:28:56;0.00;99.90
21744;DHT22;11034;48.556;9.342;2023-03-04T07:31:28;0.10;99.90
21744;DHT22;11034;48.556;9.342;2023-03-04T07:33:59;0.10;99.90
21744;DHT22;11034;48.556;9.342;2023-03-04T07:36:27;0.20;99.90
21744;DHT22;11034;48.556;9.342;2023-03-04T07:38:55;0.40;99.90
21744;DHT22;11034;48.556;9.342;2023-03-04T07:41:25;0.50;99.90
21744;DHT22;11034;48.556;9.342;2023-03-04T07:43:56;0.60;99.90
21744;DHT22;11034;48.556;9.342;2023-03-04T15:02:41;2.50;99.90
21744;DHT22;11034;48.556;9.342;2023-03-04T15:05:16;2.50;99.90
21744;DHT22;11034;48.556;9.342;2023-03-04T15:07:53;2.50;99.90
21744;DHT22;11034;48.556;9.342;2023-03-04T15:10:23;2.40;99.90
21744;DHT22;11034;48.556;9.342;2023-03-04T15:12:54;2.40;99.90
21744;DHT22;11034;48.556;9.342;2023-03-04T15:15:38;2.30;99.90
21744;DHT22;11034;48.556;9.342;2023-03-04T15:18:25;2.20;99.90
21744;DHT22;11034;48.556;9.342;2023-03-04T15:20:56;2.20;99.90
21744;DHT22;11034;48.556;9.342;2023-03-04T15:23:25;2.20;99.90
21744;DHT22;11034;48.556;9.342;2023-03-04T15:25:55;2.20;99.90
21744;DHT22;11034;48.556;9.342;2023-03-04T15:28:24;2.20;99.90
21744;DHT22;11034;48.556;9.342;2023-03-04T15:30:53;2.20;99.90
21744;DHT22;11034;48.556;9.342;2023-03-04T15:33:23;2.10;99.90
21744;DHT22;11034;48.556;9.342;2023-03-04T15:35:53;2.10;99.90
21744;DHT22;11034;48.556;9.342;2023-03-04T15:38:23;2.00;99.90
21744;DHT22;11034;48.556;9.342;2023-03-04T15:40:52;2.00;99.90
21744;DHT22;11034;48.556;9.342;2023-03-04T15:43:22;1.90;99.90
21744;DHT22;11034;48.556;9.342;2023-03-04T15:45:50;1.90;99.90
21744;DHT22;11034;48.556;9.342;2023-03-04T15:48:19;1.90;99.90
21744;DHT22;11034;48.556;9.342;2023-03-04T15:50:52;2.00;99.90
21744;DHT22;11034;48.556;9.342;2023-03-04T15:53:27;1.90;99.90
21744;DHT22;11034;48.556;9.342;2023-03-04T15:55:59;1.90;99.90
21744;DHT22;11034;48.556;9.342;2023-03-04T15:58:28;1.90;99.90
21744;DHT22;11034;48.556;9.342;2023-03-04T16:00:57;1.90;99.90
21744;DHT22;11034;48.556;9.342;2023-03-04T16:03:25;1.90;99.90
21744;DHT22;11034;48.556;9.342;2023-03-04T16:05:56;1.90;99.90
21744;DHT22;11034;48.556;9.342;2023-03-04T16:08:24;1.90;99.90
21744;DHT22;11034;48.556;9.342;2023-03-04T16:10:52;1.70;99.90
21744;DHT22;11034;48.556;9.342;2023-03-04T16:13:21;1.80;99.90
21744;DHT22;11034;48.556;9.342;2023-03-04T16:15:50;1.70;99.90
21744;DHT22;11034;48.556;9.342;2023-03-04T16:18:19;1.70;99.90
21744;DHT22;11034;48.556;9.342;2023-03-04T16:20:48;1.70;99.90
21744;DHT22;11034;48.556;9.342;2023-03-04T16:23:20;1.70;99.90
21744;DHT22;11034;48.556;9.342;2023-03-04T16:25:50;1.70;99.90
21744;DHT22;11034;48.556;9.342;2023-03-04T16:28:20;1.70;99.90
21744;DHT22;11034;48.556;9.342;2023-03-04T16:30:48;1.70;99.90
21744;DHT22;11034;48.556;9.342;2023-03-04T16:33:16;1.60;99.90
21744;DHT22;11034;48.556;9.342;2023-03-04T16:35:45;1.60;99.90
21744;DHT22;11034;48.556;9.342;2023-03-04T16:38:23;1.60;99.90
21744;DHT22;11034;48.556;9.342;2023-03-04T16:40:53;1.60;99.90
21744;DHT22;11034;48.556;9.342;2023-03-04T16:43:22;1.60;99.90
21744;DHT22;11034;48.556;9.342;2023-03-04T16:45:51;1.60;99.90
21744;DHT22;11034;48.556;9.342;2023-03-04T16:48:19;1.50;99.90
21744;DHT22;11034;48.556;9.342;2023-03-04T16:50:47;1.50;99.90
21744;DHT22;11034;48.556;9.342;2023-03-04T16:53:32;1.60;99.90
21744;DHT22;11034;48.556;9.342;2023-03-04T16:56:04;1.60;99.90
21744;DHT22;11034;48.556;9.342;2023-03-04T16:58:33;1.60;99.90
21744;DHT22;11034;48.556;9.342;2023-03-04T17:01:01;1.60;99.90
21744;DHT22;11034;48.556;9.342;2023-03-04T17:03:30;1.50;99.90
21744;DHT22;11034;48.556;9.342;2023-03-04T17:05:58;1.50;99.90
21744;DHT22;11034;48.556;9.342;2023-03-04T17:08:27;1.50;99.90
21744;DHT22;11034;48.556;9.342;2023-03-04T17:10:55;1.50;99.90
21744;DHT22;11034;48.556;9.342;2023-03-04T17:13:23;1.50;99.90
21744;DHT22;11034;48.556;9.342;2023-03-04T17:15:51;1.60;99.90
21744;DHT22;11034;48.556;9.342;2023-03-04T17:18:19;1.60;99.90
21744;DHT22;11034;48.556;9.342;2023-03-04T17:20:47;1.50;99.90
21744;DHT22;11034;48.556;9.342;2023-03-04T17:23:15;1.50;99.90
21744;DHT22;11034;48.556;9.342;2023-03-04T17:25:45;1.50;99.90
21744;DHT22;11034;48.556;9.342;2023-03-04T17:28:13;1.50;99.90
21744;DHT22;11034;48.556;9.342;2023-03-04T17:30:41;1.50;99.90
21744;DHT22;11034;48.556;9.342;2023-03-04T17:33:08;1.50;99.90
21744;DHT22;11034;48.556;9.342;2023-03-04T17:35:37;1.50;99.90
21744;DHT22;11034;48.556;9.342;2023-03-04T17:38:05;1.50;99.90
21744;DHT22;11034;48.556;9.342;2023-03-04T17:40:33;1.40;99.90
21744;DHT22;11034;48.556;9.342;2023-03-04T17:43:02;1.40;99.90
21744;DHT22;11034;48.556;9.342;2023-03-04T17:45:36;1.40;99.90
21744;DHT22;11034;48.556;9.342;2023-03-04T17:48:05;1.40;99.90
21744;DHT22;11034;48.556;9.342;2023-03-04T17:50:34;1.40;99.90
21744;DHT22;11034;48.556;9.342;2023-03-04T17:53:02;1.40;99.90
21744;DHT22;11034;48.556;9.342;2023-03-04T17:55:30;1.40;99.90
21744;DHT22;11034;48.556;9.342;2023-03-04T17:57:58;1.30;99.90
21744;DHT22;11034;48.556;9.342;2023-03-04T18:00:27;1.20;99.90
21744;DHT22;11034;48.556;9.342;2023-03-04T18:02:55;1.30;99.90
21744;DHT22;11034;48.556;9.342;2023-03-04T18:05:23;1.20;99.90
21744;DHT22;11034;48.556;9.342;2023-03-04T18:07:51;1.30;99.90
21744;DHT22;11034;48.556;9.342;2023-03-04T18:10:19;1.30;99.90
21744;DHT22;11034;48.556;9.342;2023-03-04T18:12:47;1.30;99.90
21744;DHT22;11034;48.556;9.342;2023-03-04T18:15:15;1.30;99.90
21744;DHT22;11034;48.556;9.342;2023-03-04T18:17:45;1.30;99.90
21744;DHT22;11034;48.556;9.342;2023-03-04T18:20:13;1.20;99.90
21744;DHT22;11034;48.556;9.342;2023-03-04T18:22:41;1.30;99.90
21744;DHT22;11034;48.556;9.342;2023-03-04T18:25:10;1.20;99.90
21744;DHT22;11034;48.556;9.342;2023-03-04T18:27:39;1.20;99.90
21744;DHT22;11034;48.556;9.342;2023-03-04T18:30:09;1.20;99.90
21744;DHT22;11034;48.556;9.342;2023-03-04T18:32:37;1.60;99.90
21744;DHT22;11034;48.556;9.342;2023-03-04T18:35:19;1.60;99.90
21744;DHT22;11034;48.556;9.342;2023-03-04T18:37:48;1.50;99.90
21744;DHT22;11034;48.556;9.342;2023-03-04T18:40:17;1.40;99.90
21744;DHT22;11034;48.556;9.342;2023-03-04T18:42:45;1.40;99.90
21744;DHT22;11034;48.556;9.342;2023-03-04T18:45:14;1.30;99.90
21744;DHT22;11034;48.556;9.342;2023-03-04T18:47:45;1.40;99.90
21744;DHT22;11034;48.556;9.342;2023-03-04T18:50:14;1.40;99.90
21744;DHT22;11034;48.556;9.342;2023-03-04T18:52:44;1.60;99.90
21744;DHT22;11034;48.556;9.342;2023-03-04T18:55:12;1.90;99.90
21744;DHT22;11034;48.556;9.342;2023-03-04T18:57:42;2.10;99.90
21744;DHT22;11034;48.556;9.342;2023-03-04T19:00:15;2.10;99.90
21744;DHT22;11034;48.556;9.342;2023-03-04T19:02:46;2.00;99.90
21744;DHT22;11034;48.556;9.342;2023-03-04T19:05:17;1.90;99.90
21744;DHT22;11034;48.556;9.342;2023-03-04T19:07:48;1.70;99.90
21744;DHT22;11034;48.556;9.342;2023-03-04T19:10:16;1.70;99.90
21744;DHT22;11034;48.556;9.342;2023-03-04T19:12:45;1.60;99.90
21744;DHT22;11034;48.556;9.342;2023-03-04T19:15:14;1.60;99.90
21744;DHT22;11034;48.556;9.342;2023-03-04T19:17:42;1.50;99.90
21744;DHT22;11034;48.556;9.342;2023-03-04T19:20:13;1.40;99.90
21744;DHT22;11034;48.556;9.342;2023-03-04T19:22:41;1.40;99.90
21744;DHT22;11034;48.556;9.342;2023-03-04T19:25:11;1.40;99.90
21744;DHT22;11034;48.556;9.342;2023-03-04T19:27:39;1.50;99.90
21744;DHT22;11034;48.556;9.342;2023-03-04T19:30:08;1.50;99.90
21744;DHT22;11034;48.556;9.342;2023-03-04T19:32:36;1.50;99.90
21744;DHT22;11034;48.556;9.342;2023-03-04T19:35:05;1.40;99.90
21744;DHT22;11034;48.556;9.342;2023-03-04T19:37:33;1.40;99.90
21744;DHT22;11034;48.556;9.342;2023-03-04T19:40:01;1.40;99.90
21744;DHT22;11034;48.556;9.342;2023-03-04T19:42:30;1.30;99.90
21744;DHT22;11034;48.556;9.342;2023-03-04T19:44:59;1.30;99.90
21744;DHT22;11034;48.556;9.342;2023-03-04T19:47:35;1.30;99.90
21744;DHT22;11034;48.556;9.342;2023-03-04T19:50:04;1.40;99.90
21744;DHT22;11034;48.556;9.342;2023-03-04T19:52:32;1.40;99.90
21744;DHT22;11034;48.556;9.342;2023-03-04T19:55:00;1.40;99.90
21744;DHT22;11034;48.556;9.342;2023-03-04T19:57:30;1.50;99.90
21744;DHT22;11034;48.556;9.342;2023-03-04T19:59:59;1.60;99.90
21744;DHT22;11034;48.556;9.342;2023-03-04T20:02:27;1.60;99.90
21744;DHT22;11034;48.556;9.342;2023-03-04T20:04:55;1.60;99.90
21744;DHT22;11034;48.556;9.342;2023-03-04T20:07:23;1.70;99.90
21744;DHT22;11034;48.556;9.342;2023-03-04T20:09:53;1.60;99.90
21744;DHT22;11034;48.556;9.342;2023-03-04T20:12:22;1.70;99.90
21744;DHT22;11034;48.556;9.342;2023-03-04T20:14:52;1.60;99.90
21744;DHT22;11034;48.556;9.342;2023-03-04T20:17:20;1.50;99.90
21744;DHT22;11034;48.556;9.342;2023-03-04T20:19:48;1.40;99.90
21744;DHT22;11034;48.556;9.342;2023-03-04T20:22:16;1.50;99.90
21744;DHT22;11034;48.556;9.342;2023-03-04T20:24:44;1.50;99.90
21744;DHT22;11034;48.556;9.342;2023-03-04T20:27:12;1.40;99.90
21744;DHT22;11034;48.556;9.342;2023-03-04T20:29:41;1.40;99.90
21744;DHT22;11034;48.556;9.342;2023-03-04T20:32:11;1.40;99.90
21744;DHT22;11034;48.556;9.342;2023-03-04T20:34:39;1.40;99.90
21744;DHT22;11034;48.556;9.342;2023-03-04T20:37:07;1.40;99.90
21744;DHT22;11034;48.556;9.342;2023-03-04T20:39:35;1.40;99.90
21744;DHT22;11034;48.556;9.342;2023-03-04T20:42:03;1.40;99.90
21744;DHT22;11034;48.556;9.342;2023-03-04T20:44:32;1.40;99.90
21744;DHT22;11034;48.556;9.342;2023-03-04T20:47:02;1.40;99.90
21744;DHT22;11034;48.556;9.342;2023-03-04T20:49:31;1.30;99.90
21744;DHT22;11034;48.556;9.342;2023-03-04T20:52:01;1.30;99.90
21744;DHT22;11034;48.556;9.342;2023-03-04T20:54:32;1.30;99.90
21744;DHT22;11034;48.556;9.342;2023-03-04T20:57:00;1.30;99.90
21744;DHT22;11034;48.556;9.342;2023-03-04T20:59:28;1.30;99.90
